Time;durP1;ratioP1;P1;durP2;ratioP2;P2;SDS_P1;SDS_P2;PMS_P1;PMS_P2;Temp;Humidity;BMP_temperature;BMP_pressure;BME280_temperature;BME280_humidity;BME280_pressure;Samples;Min_cycle;Max_cycle;Signal;HPM_P1;HPM_P2
2022/05/17 00:01:48;;;;;;;6.35;3.33;;;18.90;61.80;;;;;;2329377;57;21068;-74
2022/05/17 00:04:16;;;;;;;6.90;3.35;;;18.80;62.70;;;;;;2329146;57;21096;-74
2022/05/17 00:06:43;;;;;;;9.07;3.80;;;18.70;63.80;;;;;;2327665;57;22173;-74
2022/05/17 00:09:10;;;;;;;11.35;4.10;;;18.60;64.40;;;;;;2328859;57;21485;-73
2022/05/17 00:11:37;;;;;;;8.77;3.80;;;18.60;65.00;;;;;;2329069;57;21055;-74
2022/05/17 00:16:40;;;;;;;10.03;4.43;;;18.50;65.60;;;;;;2334233;57;28325;-74
2022/05/17 00:19:09;;;;;;;10.18;3.78;;;18.00;70.30;;;;;;2347560;57;21117;-74
2022/05/17 00:21:37;;;;;;;6.47;3.50;;;18.20;68.90;;;;;;2347102;57;21061;-74
2022/05/17 00:24:06;;;;;;;6.80;3.55;;;18.20;68.00;;;;;;2346452;57;21061;-74
2022/05/17 00:26:34;;;;;;;8.00;3.72;;;18.20;67.70;;;;;;2347241;57;21046;-74
2022/05/17 00:29:02;;;;;;;8.98;3.65;;;18.20;67.60;;;;;;2347279;57;21108;-74
2022/05/17 00:31:29;;;;;;;10.07;3.92;;;18.20;67.60;;;;;;2346672;57;21134;-74
2022/05/17 00:33:57;;;;;;;8.57;3.75;;;18.20;67.80;;;;;;2347510;57;21042;-74
2022/05/17 00:36:26;;;;;;;6.68;3.62;;;18.10;68.00;;;;;;2347213;57;21528;-74
2022/05/17 00:38:53;;;;;;;7.18;3.80;;;18.10;67.90;;;;;;2347499;57;21577;-74
2022/05/17 00:41:20;;;;;;;10.35;4.80;;;18.10;68.20;;;;;;2346775;57;21143;-74
2022/05/17 00:46:52;;;;;;;9.77;4.28;;;18.00;68.30;;;;;;2346956;57;21136;-73
2022/05/17 00:49:26;;;;;;;9.27;4.37;;;17.90;68.50;;;;;;2347186;57;21085;-74
2022/05/17 00:51:56;;;;;;;9.32;4.25;;;17.90;68.60;;;;;;2347404;57;21544;-74
2022/05/17 00:54:24;;;;;;;8.57;4.53;;;17.90;68.80;;;;;;2347519;57;21604;-74
2022/05/17 00:56:59;;;;;;;15.30;4.82;;;17.80;69.00;;;;;;2347135;57;21114;-74
2022/05/17 00:59:27;;;;;;;9.07;4.10;;;17.80;69.20;;;;;;2347377;57;21105;-74
2022/05/17 01:01:55;;;;;;;10.68;4.60;;;17.70;69.30;;;;;;2346604;57;21033;-73
2022/05/17 01:04:24;;;;;;;9.02;4.28;;;17.70;69.60;;;;;;2347903;57;21172;-74
2022/05/17 01:06:57;;;;;;;7.68;4.68;;;17.70;69.90;;;;;;2346759;57;21105;-74
2022/05/17 01:09:25;;;;;;;11.18;4.53;;;17.60;70.00;;;;;;2347906;57;21033;-73
2022/05/17 01:11:52;;;;;;;10.27;4.80;;;17.60;70.10;;;;;;2347159;57;21046;-74
2022/05/17 01:20:02;;;;;;;8.80;4.90;;;17.60;70.40;;;;;;2335966;57;27799;-73
2022/05/17 01:22:29;;;;;;;7.45;4.53;;;17.20;73.70;;;;;;2347171;57;21116;-74
2022/05/17 01:24:57;;;;;;;10.73;4.75;;;17.40;72.60;;;;;;2347502;57;21546;-73
2022/05/17 01:27:29;;;;;;;17.27;5.85;;;17.40;71.80;;;;;;2357807;56;21043;-74
2022/05/17 01:29:57;;;;;;;8.13;5.03;;;17.40;71.50;;;;;;2374765;56;21122;-73
2022/05/17 01:32:24;;;;;;;9.50;5.03;;;17.40;71.20;;;;;;2375135;56;21348;-73
2022/05/17 01:34:52;;;;;;;8.15;4.60;;;17.40;71.30;;;;;;2375319;56;21605;-73
2022/05/17 01:39:55;;;;;;;16.12;7.93;;;17.40;71.40;;;;;;2354384;57;22058;-74
2022/05/17 01:42:22;;;;;;;15.00;10.55;;;17.30;71.40;;;;;;2347819;57;21651;-74
2022/05/17 01:44:50;;;;;;;14.10;9.70;;;17.30;71.40;;;;;;2347524;57;21054;-74
2022/05/17 01:47:17;;;;;;;22.87;11.93;;;17.30;71.60;;;;;;2355570;56;21103;-74
2022/05/17 01:49:44;;;;;;;16.37;12.00;;;17.30;71.70;;;;;;2375029;56;21051;-74
2022/05/17 01:52:11;;;;;;;18.35;10.70;;;17.30;71.80;;;;;;2375365;56;21043;-74
2022/05/17 01:54:39;;;;;;;16.35;8.40;;;17.30;71.90;;;;;;2628110;52;21054;-74
2022/05/17 01:57:07;;;;;;;14.25;8.13;;;17.30;71.80;;;;;;2373314;56;21055;-74
2022/05/17 01:59:34;;;;;;;8.05;5.40;;;17.30;71.80;;;;;;2375376;56;21058;-74
2022/05/17 02:02:03;;;;;;;9.93;6.03;;;17.40;72.00;;;;;;2375106;56;21608;-75
2022/05/17 02:04:30;;;;;;;9.50;4.40;;;17.40;72.20;;;;;;2374857;56;21042;-74
2022/05/17 02:06:58;;;;;;;11.02;5.45;;;17.40;71.90;;;;;;2373821;56;21511;-74
2022/05/17 02:09:25;;;;;;;12.82;5.20;;;17.40;71.90;;;;;;2375141;56;21047;-74
2022/05/17 02:11:52;;;;;;;8.25;4.72;;;17.40;71.90;;;;;;2373947;56;21122;-74
2022/05/17 02:14:19;;;;;;;13.15;5.28;;;17.30;71.80;;;;;;2375240;56;21541;-74
2022/05/17 02:16:47;;;;;;;7.43;4.45;;;17.30;71.80;;;;;;2374256;56;21031;-74
2022/05/17 02:19:19;;;;;;;12.60;4.78;;;17.30;71.90;;;;;;2375233;56;21162;-75
2022/05/17 02:21:47;;;;;;;11.10;4.35;;;17.30;71.90;;;;;;2375362;56;21130;-74
2022/05/17 02:24:14;;;;;;;8.60;4.40;;;17.20;71.90;;;;;;2374065;56;21054;-75
2022/05/17 02:26:42;;;;;;;7.78;4.78;;;17.30;72.10;;;;;;2374174;56;21652;-75
2022/05/17 02:29:09;;;;;;;10.48;4.80;;;17.30;72.20;;;;;;2375351;56;21121;-75
2022/05/17 02:31:37;;;;;;;6.97;4.30;;;17.30;72.30;;;;;;2375015;56;21035;-75
2022/05/17 02:34:04;;;;;;;6.93;3.97;;;17.30;72.30;;;;;;2375339;56;21078;-75
2022/05/17 02:36:32;;;;;;;7.93;4.40;;;17.30;72.50;;;;;;2374603;56;21098;-75
2022/05/17 02:38:59;;;;;;;7.18;4.65;;;17.30;72.50;;;;;;2375273;56;21051;-75
2022/05/17 02:41:26;;;;;;;10.80;4.55;;;17.30;72.50;;;;;;2373164;56;21173;-74
2022/05/17 02:43:53;;;;;;;8.07;4.82;;;17.30;72.50;;;;;;2374391;56;21047;-74
2022/05/17 02:46:21;;;;;;;11.35;4.72;;;17.30;72.40;;;;;;2374444;56;21556;-74
2022/05/17 02:48:48;;;;;;;9.93;5.18;;;17.40;72.40;;;;;;2375103;56;21122;-74
2022/05/17 02:51:17;;;;;;;10.07;4.45;;;17.40;72.40;;;;;;2373552;56;21058;-74
2022/05/17 02:53:45;;;;;;;10.43;4.70;;;17.30;72.40;;;;;;2373931;56;21032;-74
2022/05/17 02:56:12;;;;;;;9.73;4.78;;;17.30;72.40;;;;;;2373135;56;21663;-74
2022/05/17 02:58:40;;;;;;;7.60;4.50;;;17.30;72.50;;;;;;2373705;56;21573;-74
2022/05/17 03:01:08;;;;;;;8.75;4.90;;;17.30;72.50;;;;;;2373444;56;21550;-74
2022/05/17 03:03:38;;;;;;;8.63;5.18;;;17.30;72.60;;;;;;2374215;56;21031;-74
2022/05/17 03:06:06;;;;;;;9.27;5.07;;;17.30;72.70;;;;;;2373658;56;21058;-74
2022/05/17 03:08:33;;;;;;;8.80;4.85;;;17.30;72.70;;;;;;2374039;56;21027;-74
2022/05/17 03:11:01;;;;;;;10.50;5.00;;;17.30;72.60;;;;;;2373570;56;21047;-74
2022/05/17 03:13:28;;;;;;;6.78;4.45;;;17.30;72.60;;;;;;2373378;56;21091;-74
2022/05/17 03:15:55;;;;;;;7.32;4.28;;;17.30;73.40;;;;;;2373689;56;21047;-74
2022/05/17 03:18:23;;;;;;;7.28;4.78;;;17.40;72.70;;;;;;2374083;56;21095;-74
2022/05/17 03:23:26;;;;;;;11.52;5.22;;;17.30;73.40;;;;;;2355716;57;22086;-74
2022/05/17 03:25:53;;;;;;;11.27;5.53;;;17.40;71.80;;;;;;2346881;57;21140;-74
2022/05/17 03:28:21;;;;;;;9.48;5.40;;;17.30;72.00;;;;;;2367846;56;21066;-74
2022/05/17 03:30:48;;;;;;;10.07;4.57;;;17.30;72.30;;;;;;2374800;56;21134;-74
2022/05/17 03:33:15;;;;;;;8.50;4.40;;;17.30;72.50;;;;;;2375139;56;21038;-74
2022/05/17 03:35:43;;;;;;;9.02;5.53;;;17.30;72.30;;;;;;2374921;56;21099;-74
2022/05/17 03:38:10;;;;;;;10.35;5.30;;;17.30;72.50;;;;;;2406313;55;21088;-73
2022/05/17 03:40:38;;;;;;;10.88;4.55;;;17.30;72.70;;;;;;2245263;60;21161;-73
2022/05/17 03:43:05;;;;;;;11.23;4.72;;;17.30;72.70;;;;;;2244288;60;21156;-73
2022/05/17 03:45:32;;;;;;;8.18;4.50;;;17.30;72.70;;;;;;2244888;60;21085;-73
2022/05/17 03:48:00;;;;;;;8.32;4.87;;;17.30;72.80;;;;;;2261185;59;21063;-73
2022/05/17 03:50:27;;;;;;;12.18;5.62;;;17.30;72.70;;;;;;2271248;59;21151;-73
2022/05/17 03:52:55;;;;;;;15.05;5.22;;;17.30;72.70;;;;;;2270777;59;21660;-73
2022/05/17 03:55:23;;;;;;;11.90;5.93;;;17.30;72.70;;;;;;2270827;59;21074;-73
2022/05/17 03:57:50;;;;;;;8.52;5.20;;;17.30;72.60;;;;;;2500953;55;21219;-73
2022/05/17 04:00:18;;;;;;;9.40;4.85;;;17.30;72.50;;;;;;2271122;59;21074;-73
2022/05/17 04:02:45;;;;;;;14.87;6.05;;;17.30;72.50;;;;;;2268948;59;21078;-73
2022/05/17 04:05:13;;;;;;;13.35;5.62;;;17.30;72.70;;;;;;2270466;59;21074;-73
2022/05/17 04:07:40;;;;;;;8.68;5.53;;;17.30;72.60;;;;;;2270825;59;21137;-73
2022/05/17 04:10:11;;;;;;;9.60;4.87;;;17.30;72.70;;;;;;2271050;59;21043;-73
2022/05/17 04:12:38;;;;;;;12.90;5.75;;;17.30;72.80;;;;;;2270871;59;21133;-73
2022/05/17 04:15:09;;;;;;;8.15;5.32;;;17.30;72.90;;;;;;2500395;55;21658;-73
2022/05/17 04:17:36;;;;;;;11.95;6.12;;;17.30;73.00;;;;;;2271085;59;21554;-73
2022/05/17 04:20:04;;;;;;;11.73;5.72;;;17.30;73.20;;;;;;2269110;59;22033;-73
2022/05/17 04:22:32;;;;;;;12.85;6.25;;;17.30;73.40;;;;;;2270698;59;21071;-74
2022/05/17 04:24:59;;;;;;;12.68;5.50;;;17.30;73.50;;;;;;2270520;59;21580;-72
2022/05/17 04:27:27;;;;;;;9.05;5.55;;;17.20;74.10;;;;;;2501647;55;21058;-73
2022/05/17 04:29:54;;;;;;;11.73;5.87;;;17.20;73.80;;;;;;2270535;59;21067;-73
2022/05/17 04:32:22;;;;;;;10.00;5.97;;;17.20;73.90;;;;;;2270330;59;21058;-73
2022/05/17 04:34:49;;;;;;;8.50;5.10;;;17.30;74.10;;;;;;2500526;55;21063;-73
2022/05/17 04:37:16;;;;;;;15.43;5.18;;;17.30;74.00;;;;;;2269151;59;21636;-73
2022/05/17 04:39:43;;;;;;;10.43;6.07;;;17.30;74.00;;;;;;2500389;55;21643;-73
2022/05/17 04:42:11;;;;;;;11.95;5.65;;;17.30;74.10;;;;;;2269601;59;21142;-72
2022/05/17 04:44:38;;;;;;;9.25;5.18;;;17.30;74.30;;;;;;2270187;59;21130;-73
2022/05/17 04:47:08;;;;;;;9.52;4.95;;;17.30;74.20;;;;;;2269679;59;21051;-73
2022/05/17 04:49:36;;;;;;;9.35;5.62;;;17.30;74.30;;;;;;2270042;59;21063;-73
2022/05/17 04:52:04;;;;;;;10.15;5.32;;;17.30;74.10;;;;;;2268429;59;21067;-72
2022/05/17 04:54:31;;;;;;;8.35;5.47;;;17.40;74.10;;;;;;2269588;59;21126;-73
2022/05/17 04:56:58;;;;;;;10.43;5.75;;;17.40;74.20;;;;;;2269619;59;21051;-72
2022/05/17 04:59:26;;;;;;;12.20;7.05;;;17.40;74.10;;;;;;2269932;59;21609;-73
2022/05/17 05:01:53;;;;;;;8.23;4.97;;;17.40;74.00;;;;;;2269662;59;21629;-73
2022/05/17 05:04:20;;;;;;;7.60;5.55;;;17.40;74.10;;;;;;2270068;59;21063;-73
2022/05/17 05:06:47;;;;;;;9.43;5.62;;;17.40;74.20;;;;;;2269626;59;22159;-73
2022/05/17 05:09:14;;;;;;;8.98;5.10;;;17.50;74.20;;;;;;2269285;59;21059;-72
2022/05/17 05:11:42;;;;;;;7.95;5.35;;;17.50;74.20;;;;;;2270063;59;21190;-72
2022/05/17 05:14:09;;;;;;;9.68;5.22;;;17.50;74.20;;;;;;2269644;59;21701;-73
2022/05/17 05:16:38;;;;;;;10.07;5.87;;;17.50;74.20;;;;;;2269628;59;21071;-72
2022/05/17 05:19:09;;;;;;;10.02;5.93;;;17.50;74.30;;;;;;2270087;59;21118;-72
2022/05/17 05:21:36;;;;;;;10.70;6.40;;;17.50;74.40;;;;;;2269810;59;21043;-75
2022/05/17 05:24:07;;;;;;;10.30;6.30;;;17.50;74.40;;;;;;2268931;59;21209;-72
2022/05/17 05:26:35;;;;;;;8.80;5.70;;;17.50;74.60;;;;;;2269920;59;21131;-73
2022/05/17 05:29:02;;;;;;;11.63;6.25;;;17.50;74.70;;;;;;2269590;59;21126;-73
2022/05/17 05:31:29;;;;;;;11.00;6.45;;;17.50;74.70;;;;;;2269907;59;21133;-73
2022/05/17 05:33:56;;;;;;;11.15;6.53;;;17.60;74.80;;;;;;2270141;59;21565;-72
2022/05/17 05:36:24;;;;;;;13.52;7.03;;;17.60;74.60;;;;;;2500261;55;21094;-72
2022/05/17 05:38:52;;;;;;;11.45;7.10;;;17.60;74.50;;;;;;2269975;59;21066;-73
2022/05/17 05:41:19;;;;;;;10.77;7.00;;;17.70;74.50;;;;;;2268762;59;21550;-72
2022/05/17 05:43:47;;;;;;;11.45;6.82;;;17.60;74.50;;;;;;2270085;59;21143;-73
2022/05/17 05:46:14;;;;;;;14.02;7.37;;;17.70;74.70;;;;;;2269680;59;22127;-74
2022/05/17 05:48:42;;;;;;;14.65;8.27;;;17.70;74.90;;;;;;2269581;59;21150;-73
2022/05/17 05:51:11;;;;;;;12.43;7.78;;;17.70;74.90;;;;;;2269748;59;21114;-72
2022/05/17 05:53:39;;;;;;;13.57;7.95;;;17.70;74.90;;;;;;2270224;59;21146;-73
2022/05/17 05:56:06;;;;;;;12.70;8.10;;;17.70;74.90;;;;;;2499322;55;21155;-72
2022/05/17 05:58:36;;;;;;;14.18;8.30;;;17.80;75.00;;;;;;2499388;55;21067;-73
2022/05/17 06:01:04;;;;;;;10.23;7.55;;;17.80;75.00;;;;;;2268539;59;21189;-73
2022/05/17 06:03:32;;;;;;;13.10;8.55;;;17.80;75.10;;;;;;2500486;55;21086;-72
2022/05/17 06:05:59;;;;;;;13.65;7.75;;;17.80;75.30;;;;;;2269151;59;21070;-73
2022/05/17 06:08:27;;;;;;;22.95;8.30;;;17.80;75.40;;;;;;2269379;59;21134;-72
2022/05/17 06:10:54;;;;;;;14.60;8.27;;;17.80;75.50;;;;;;2269126;59;21720;-73
2022/05/17 06:13:22;;;;;;;13.00;7.93;;;17.80;75.50;;;;;;2269581;59;21067;-73
2022/05/17 06:15:52;;;;;;;13.73;8.63;;;17.80;75.50;;;;;;2269080;59;21578;-72
2022/05/17 06:18:20;;;;;;;16.77;9.00;;;17.80;75.40;;;;;;2269744;59;21131;-73
2022/05/17 06:20:51;;;;;;;19.20;9.55;;;17.70;75.40;;;;;;2269058;59;21333;-73
2022/05/17 06:23:19;;;;;;;19.35;9.55;;;17.60;75.50;;;;;;2269703;59;21134;-72
2022/05/17 06:25:46;;;;;;;14.30;9.18;;;17.60;75.60;;;;;;2269583;59;21059;-73
2022/05/17 06:28:14;;;;;;;16.83;10.85;;;17.60;75.80;;;;;;2269216;59;21075;-73
2022/05/17 06:30:41;;;;;;;14.52;9.77;;;17.50;75.90;;;;;;2500114;55;21142;-73
2022/05/17 06:33:10;;;;;;;12.57;7.55;;;17.50;76.10;;;;;;2500451;55;22025;-73
2022/05/17 06:35:38;;;;;;;15.70;9.30;;;17.60;76.30;;;;;;2269727;59;21134;-73
2022/05/17 06:38:05;;;;;;;16.92;8.80;;;17.60;76.20;;;;;;2269941;59;21066;-73
2022/05/17 06:40:33;;;;;;;17.27;10.18;;;17.60;76.10;;;;;;2269475;59;21055;-73
2022/05/17 06:43:00;;;;;;;17.42;11.12;;;17.60;76.00;;;;;;2269945;59;21118;-73
2022/05/17 06:45:28;;;;;;;17.00;10.20;;;17.60;76.10;;;;;;2268900;59;21916;-73
2022/05/17 06:47:55;;;;;;;16.60;9.82;;;17.70;76.20;;;;;;2269974;59;21127;-73
2022/05/17 06:50:22;;;;;;;16.55;11.00;;;17.70;76.20;;;;;;2269600;59;21601;-73
2022/05/17 06:52:50;;;;;;;15.57;10.40;;;17.70;76.00;;;;;;2270081;59;21053;-73
2022/05/17 06:55:17;;;;;;;19.27;10.95;;;17.80;75.90;;;;;;2269739;59;21071;-73
2022/05/17 06:57:45;;;;;;;23.90;12.40;;;17.80;75.90;;;;;;2500593;55;21127;-73
2022/05/17 07:00:15;;;;;;;24.83;12.13;;;17.70;76.00;;;;;;2269799;59;21134;-72
2022/05/17 07:02:42;;;;;;;21.23;12.57;;;17.70;76.10;;;;;;2500126;55;21557;-72
2022/05/17 07:05:10;;;;;;;19.73;12.45;;;17.70;76.10;;;;;;2270089;59;21134;-72
2022/05/17 07:07:39;;;;;;;16.52;10.95;;;17.70;76.40;;;;;;2269946;59;21119;-73
2022/05/17 07:13:09;;;;;;;15.38;10.20;;;17.70;76.70;;;;;;2270058;59;21078;-73
2022/05/17 07:15:36;;;;;;;13.13;9.30;;;17.80;76.80;;;;;;2269000;59;21074;-73
2022/05/17 07:18:05;;;;;;;14.23;9.77;;;17.80;76.60;;;;;;2269462;59;21565;-72
2022/05/17 07:20:32;;;;;;;14.02;9.27;;;17.80;76.40;;;;;;2269690;59;21063;-73
2022/05/17 07:23:00;;;;;;;16.10;10.15;;;17.90;76.40;;;;;;2270100;59;21719;-72
2022/05/17 07:25:27;;;;;;;14.10;9.35;;;17.90;76.50;;;;;;2269733;59;21087;-73
2022/05/17 07:27:54;;;;;;;13.52;10.02;;;17.90;76.20;;;;;;2269792;59;21067;-72
2022/05/17 07:30:22;;;;;;;12.35;9.07;;;18.00;75.60;;;;;;2269846;59;21130;-73
2022/05/17 07:32:49;;;;;;;11.95;8.95;;;18.00;76.00;;;;;;2269025;59;21067;-73
2022/05/17 07:35:17;;;;;;;14.20;10.23;;;18.10;76.10;;;;;;2499720;55;21246;-72
2022/05/17 07:37:44;;;;;;;12.02;8.82;;;18.10;75.90;;;;;;2269646;59;21062;-72
2022/05/17 07:40:15;;;;;;;12.70;8.63;;;18.10;75.70;;;;;;2269502;59;21106;-72
2022/05/17 07:42:42;;;;;;;14.90;9.48;;;18.20;75.70;;;;;;2500517;55;21066;-72
2022/05/17 07:45:12;;;;;;;14.38;10.18;;;18.20;75.50;;;;;;2499646;55;21069;-73
2022/05/17 07:47:39;;;;;;;15.05;10.43;;;18.30;75.30;;;;;;2269553;59;21138;-72
2022/05/17 07:50:08;;;;;;;12.95;9.90;;;18.30;75.40;;;;;;2269747;59;21063;-72
2022/05/17 07:52:35;;;;;;;13.60;9.63;;;18.30;75.30;;;;;;2269954;59;21062;-72
2022/05/17 07:55:04;;;;;;;13.75;9.15;;;18.30;75.30;;;;;;2269494;59;21059;-72
2022/05/17 07:57:31;;;;;;;13.95;8.93;;;18.30;75.20;;;;;;2269499;59;21071;-73
2022/05/17 07:59:58;;;;;;;14.85;10.20;;;18.40;75.00;;;;;;2269647;59;21094;-72
2022/05/17 08:02:25;;;;;;;14.40;9.43;;;18.40;74.90;;;;;;2269804;59;21134;-72
2022/05/17 08:04:53;;;;;;;15.18;9.75;;;18.40;74.90;;;;;;2269222;59;21102;-73
2022/05/17 08:07:20;;;;;;;13.90;9.93;;;18.50;74.90;;;;;;2267539;59;21043;-73
2022/05/17 08:09:47;;;;;;;13.13;9.77;;;18.40;74.70;;;;;;2268112;59;21063;-73
2022/05/17 08:12:15;;;;;;;16.27;9.85;;;18.40;74.90;;;;;;2269176;59;21836;-72
2022/05/17 08:14:44;;;;;;;12.32;9.15;;;18.40;74.90;;;;;;2270051;59;21158;-73
2022/05/17 08:17:11;;;;;;;14.52;9.77;;;18.40;74.90;;;;;;2269379;59;21538;-73
2022/05/17 08:19:39;;;;;;;13.73;10.07;;;18.40;74.70;;;;;;2269790;59;21071;-73
2022/05/17 08:22:10;;;;;;;13.93;9.32;;;18.30;74.80;;;;;;2269646;59;21119;-73
2022/05/17 08:27:37;;;;;;;16.62;10.25;;;18.40;73.90;;;;;;2269160;59;21046;-73
2022/05/17 08:30:09;;;;;;;19.17;10.68;;;18.40;74.00;;;;;;2270135;59;21087;-73
2022/05/17 08:35:29;;;;;;;18.33;10.50;;;18.30;74.80;;;;;;2268985;59;21015;-73
2022/05/17 08:37:56;;;;;;;18.48;11.25;;;18.30;75.10;;;;;;2268979;59;21064;-73
2022/05/17 08:40:24;;;;;;;13.93;9.45;;;18.30;75.80;;;;;;2500653;55;21151;-73
2022/05/17 08:45:48;;;;;;;15.68;8.85;;;18.30;76.00;;;;;;2353868;57;22042;-73
2022/05/17 08:48:17;;;;;;;18.98;10.68;;;18.40;75.90;;;;;;2365336;56;21121;-72
2022/05/17 08:50:47;;;;;;;16.02;10.68;;;18.40;75.40;;;;;;2370193;56;21113;-73
2022/05/17 08:53:18;;;;;;;15.13;10.63;;;18.50;75.80;;;;;;2371317;56;21031;-72
2022/05/17 08:55:49;;;;;;;15.80;9.77;;;18.50;76.10;;;;;;2624694;52;21177;-73
2022/05/17 08:58:24;;;;;;;14.75;9.45;;;18.60;76.20;;;;;;2371203;56;21063;-72
2022/05/17 09:00:55;;;;;;;12.40;9.13;;;18.70;76.00;;;;;;2370372;56;21130;-73
2022/05/17 09:03:35;;;;;;;12.13;8.23;;;18.90;75.80;;;;;;2370833;56;21047;-73
2022/05/17 09:06:11;;;;;;;14.40;9.48;;;19.10;75.90;;;;;;2372110;56;21102;-73
2022/05/17 09:08:47;;;;;;;12.68;9.70;;;19.20;74.80;;;;;;2371428;56;21043;-73
2022/05/17 09:11:20;;;;;;;14.90;9.52;;;19.20;73.90;;;;;;2372923;56;21027;-73
2022/05/17 09:13:52;;;;;;;12.07;8.65;;;19.20;73.90;;;;;;2374114;56;21098;-73
2022/05/17 09:16:22;;;;;;;9.45;7.35;;;19.20;73.60;;;;;;2373203;56;21050;-73
2022/05/17 09:18:50;;;;;;;8.60;6.20;;;19.20;73.20;;;;;;2373237;56;21063;-73
2022/05/17 09:21:30;;;;;;;8.00;6.10;;;19.20;73.60;;;;;;2373538;56;21067;-73
2022/05/17 09:26:35;;;;;;;9.13;6.68;;;19.40;73.80;;;;;;2352081;57;22785;-73
2022/05/17 09:29:11;;;;;;;7.30;6.15;;;19.40;73.20;;;;;;2345176;57;21348;-73
2022/05/17 09:31:39;;;;;;;7.80;5.60;;;19.40;73.00;;;;;;2345605;57;21139;-73
2022/05/17 09:34:08;;;;;;;6.40;5.53;;;19.40;72.70;;;;;;2344421;57;21037;-73
2022/05/17 09:36:44;;;;;;;6.72;5.20;;;19.40;72.60;;;;;;2345505;57;21108;-73
2022/05/17 09:39:11;;;;;;;5.68;4.78;;;19.50;73.00;;;;;;2510319;52;69814;-82
2022/05/17 09:41:41;;;;;;;6.40;5.40;;;19.50;72.30;;;;;;2408043;53;73016;-73
2022/05/17 09:44:13;;;;;;;4.85;4.25;;;19.50;72.10;;;;;;2352005;57;21058;-73
2022/05/17 09:46:46;;;;;;;6.30;4.87;;;19.60;73.00;;;;;;2604863;52;21576;-75
2022/05/17 09:55:09;;;;;;;6.68;4.53;;;19.90;72.60;;;;;;2381543;56;20990;-73
2022/05/17 10:00:21;;;;;;;5.97;4.40;;;19.90;72.00;;;;;;2355199;57;22580;-74
2022/05/17 10:02:51;;;;;;;8.50;3.65;;;20.00;72.00;;;;;;2347362;57;21057;-73
2022/05/17 10:05:23;;;;;;;5.30;4.30;;;20.10;71.60;;;;;;2347571;57;21103;-72
2022/05/17 10:07:54;;;;;;;6.00;4.32;;;20.10;70.20;;;;;;2362751;56;21641;-73
2022/05/17 10:10:31;;;;;;;4.12;3.65;;;20.10;70.30;;;;;;2375178;56;21094;-73
2022/05/17 10:13:05;;;;;;;4.78;3.80;;;20.20;70.90;;;;;;2375272;56;21113;-74
2022/05/17 10:15:38;;;;;;;5.97;4.20;;;20.20;70.80;;;;;;2373442;56;21130;-73
2022/05/17 10:18:16;;;;;;;7.25;4.00;;;20.20;70.00;;;;;;2374265;56;21577;-73
2022/05/17 10:20:46;;;;;;;4.80;4.00;;;20.20;69.60;;;;;;2374921;56;21118;-73
2022/05/17 10:23:24;;;;;;;6.40;4.37;;;20.20;70.30;;;;;;2375262;56;21066;-74
2022/05/17 10:25:56;;;;;;;8.73;4.35;;;20.20;70.70;;;;;;2375013;56;21047;-74
2022/05/17 10:28:38;;;;;;;5.55;4.10;;;20.20;70.60;;;;;;2375287;56;21138;-74
2022/05/17 10:31:13;;;;;;;5.75;4.10;;;20.30;70.50;;;;;;2375063;56;21035;-74
2022/05/17 10:33:54;;;;;;;6.12;4.10;;;20.30;69.30;;;;;;2373508;56;21091;-74
2022/05/17 10:36:25;;;;;;;4.95;4.05;;;20.30;69.60;;;;;;2375088;56;21043;-74
2022/05/17 10:39:04;;;;;;;5.50;4.07;;;20.30;70.00;;;;;;2628784;52;21122;-74
2022/05/17 10:41:32;;;;;;;5.07;4.30;;;20.40;70.10;;;;;;2375277;56;21031;-74
2022/05/17 10:44:00;;;;;;;7.70;4.97;;;20.40;70.30;;;;;;2375300;56;21631;-74
2022/05/17 10:46:31;;;;;;;6.28;4.62;;;20.50;70.10;;;;;;2373319;56;21039;-74
2022/05/17 10:49:13;;;;;;;7.78;5.03;;;20.60;69.90;;;;;;2628212;52;21043;-76
2022/05/17 10:51:50;;;;;;;8.10;5.47;;;20.60;69.40;;;;;;2375024;56;21047;-73
2022/05/17 10:54:28;;;;;;;9.10;5.32;;;20.60;67.80;;;;;;2375057;56;21039;-74
2022/05/17 10:57:02;;;;;;;8.32;5.45;;;20.50;68.90;;;;;;2374052;56;21122;-74
2022/05/17 10:59:37;;;;;;;6.20;5.00;;;20.50;68.40;;;;;;2374738;56;21616;-74
2022/05/17 11:05:08;;;;;;;6.55;4.45;;;20.40;68.60;;;;;;2351848;57;20566;-73
2022/05/17 11:07:52;;;;;;;7.85;5.40;;;20.50;69.60;;;;;;2357124;56;21110;-73
2022/05/17 11:10:31;;;;;;;6.25;4.78;;;20.50;69.60;;;;;;2374682;56;21019;-73
2022/05/17 11:13:08;;;;;;;5.97;5.37;;;20.60;69.90;;;;;;2374630;56;21565;-72
2022/05/17 11:15:38;;;;;;;7.45;4.87;;;20.60;70.00;;;;;;2373275;56;21092;-73
2022/05/17 11:18:14;;;;;;;7.00;5.40;;;20.70;70.10;;;;;;2374272;56;21030;-73
2022/05/17 11:20:49;;;;;;;7.53;5.35;;;20.70;69.70;;;;;;2373087;56;21039;-74
2022/05/17 11:23:37;;;;;;;7.47;5.07;;;20.80;68.90;;;;;;2373548;56;21070;-73
2022/05/17 11:26:28;;;;;;;8.30;5.30;;;20.80;68.90;;;;;;2372145;56;21051;-73
2022/05/17 11:29:07;;;;;;;6.87;5.30;;;20.80;68.30;;;;;;2624626;52;21138;-73
2022/05/17 11:31:49;;;;;;;9.45;5.85;;;20.80;68.50;;;;;;2373736;56;21055;-73
2022/05/17 11:34:40;;;;;;;6.97;5.03;;;20.80;68.70;;;;;;2372911;56;21014;-73
2022/05/17 11:37:43;;;;;;;6.95;5.47;;;20.80;69.00;;;;;;2371982;56;21153;-74
2022/05/17 11:40:11;;;;;;;7.70;5.57;;;20.90;68.70;;;;;;2373910;56;21038;-74
2022/05/17 11:43:40;;;;;;;7.12;5.85;;;20.90;69.30;;;;;;2373390;56;21126;-74
2022/05/17 11:46:50;;;;;;;8.57;5.50;;;20.80;68.10;;;;;;2373760;56;21043;-73
2022/05/17 11:49:27;;;;;;;7.65;5.30;;;20.70;68.00;;;;;;2373963;56;21035;-74
2022/05/17 11:52:32;;;;;;;9.57;5.62;;;20.70;67.60;;;;;;2374057;56;21090;-73
2022/05/17 11:55:02;;;;;;;6.72;5.45;;;20.70;67.70;;;;;;2374214;56;21067;-75
2022/05/17 11:58:09;;;;;;;10.60;5.57;;;20.70;67.50;;;;;;2373005;56;21125;-74
2022/05/17 12:00:51;;;;;;;8.32;5.90;;;20.70;68.20;;;;;;2373985;56;21162;-73
2022/05/17 12:03:50;;;;;;;7.50;5.47;;;20.70;67.50;;;;;;2627456;52;21078;-73
2022/05/17 12:06:38;;;;;;;8.05;5.55;;;20.70;68.20;;;;;;2373738;56;21049;-73
2022/05/17 12:09:11;;;;;;;7.15;5.57;;;20.70;68.50;;;;;;2374073;56;21057;-72
2022/05/17 12:11:58;;;;;;;5.85;4.90;;;20.80;67.60;;;;;;2374447;56;21046;-73
2022/05/17 12:14:34;;;;;;;8.13;5.20;;;20.90;67.40;;;;;;2373870;56;21123;-73
2022/05/17 12:17:04;;;;;;;6.57;5.03;;;21.00;66.90;;;;;;2373442;56;21087;-73
2022/05/17 12:19:40;;;;;;;7.65;5.45;;;21.00;67.20;;;;;;2373496;56;21134;-73
2022/05/17 12:22:12;;;;;;;7.00;5.20;;;21.10;67.40;;;;;;2374059;56;21046;-73
2022/05/17 12:27:41;;;;;;;7.93;5.50;;;21.10;67.00;;;;;;2341986;57;22594;-73
2022/05/17 12:33:04;;;;;;;7.43;5.95;;;21.10;67.40;;;;;;2346744;57;21700;-73
2022/05/17 12:35:31;;;;;;;9.30;6.85;;;21.10;67.90;;;;;;2346892;57;21105;-72
2022/05/17 12:37:59;;;;;;;10.95;7.28;;;21.10;67.90;;;;;;2347178;57;21045;-74
2022/05/17 12:43:26;;;;;;;9.98;7.05;;;21.40;67.60;;;;;;2345831;57;21508;-75
2022/05/17 12:45:53;;;;;;;11.10;7.10;;;21.50;67.20;;;;;;2346735;57;21046;-74
2022/05/17 12:48:35;;;;;;;7.60;6.00;;;21.50;66.60;;;;;;2346815;57;21038;-74
2022/05/17 12:51:05;;;;;;;9.80;6.45;;;21.60;66.00;;;;;;2347254;57;21085;-74
2022/05/17 12:53:39;;;;;;;11.05;5.90;;;21.60;65.50;;;;;;2346890;57;21111;-74
2022/05/17 12:56:09;;;;;;;10.02;5.87;;;21.60;65.20;;;;;;2346696;57;21632;-75
2022/05/17 12:58:47;;;;;;;9.05;6.72;;;21.60;64.00;;;;;;2594636;52;21041;-74
2022/05/17 13:01:14;;;;;;;11.85;6.82;;;21.60;64.20;;;;;;2346158;57;21037;-75
2022/05/17 13:03:44;;;;;;;10.23;7.45;;;21.60;64.90;;;;;;2346420;57;21069;-75
2022/05/17 13:06:12;;;;;;;10.57;7.60;;;21.60;65.50;;;;;;2346881;57;21041;-75
2022/05/17 13:08:40;;;;;;;13.95;8.65;;;21.60;65.40;;;;;;2347241;57;21136;-76
2022/05/17 13:11:12;;;;;;;12.82;8.95;;;21.60;65.30;;;;;;2347280;57;21180;-74
2022/05/17 13:13:41;;;;;;;13.67;7.60;;;21.70;65.30;;;;;;2347347;57;21058;-74
2022/05/17 13:16:14;;;;;;;13.57;8.00;;;21.70;65.30;;;;;;2346756;57;21050;-75
2022/05/17 13:18:45;;;;;;;10.88;7.68;;;21.70;65.10;;;;;;2345729;57;21049;-75
2022/05/17 13:21:22;;;;;;;11.70;7.80;;;21.70;65.20;;;;;;2347154;57;21141;-75
2022/05/17 13:23:51;;;;;;;14.40;8.55;;;21.70;65.10;;;;;;2346810;57;21524;-75
2022/05/17 13:26:26;;;;;;;14.43;8.60;;;21.70;64.80;;;;;;2345393;57;21054;-75
2022/05/17 13:28:54;;;;;;;17.10;8.57;;;21.70;65.20;;;;;;2346973;57;21102;-75
2022/05/17 13:31:26;;;;;;;14.15;8.40;;;21.70;65.40;;;;;;2347006;57;21037;-75
2022/05/17 13:34:00;;;;;;;12.65;8.73;;;21.80;65.50;;;;;;2347438;57;21113;-74
2022/05/17 13:36:33;;;;;;;15.38;8.45;;;21.90;65.70;;;;;;2345325;57;21057;-74
2022/05/17 13:39:01;;;;;;;11.65;8.20;;;22.00;65.10;;;;;;2346213;57;21319;-74
2022/05/17 13:41:37;;;;;;;15.23;8.25;;;22.00;64.70;;;;;;2346427;57;21030;-75
2022/05/17 13:44:07;;;;;;;13.40;8.45;;;22.00;65.00;;;;;;2593386;53;21116;-75
2022/05/17 13:46:39;;;;;;;16.02;9.40;;;22.00;64.40;;;;;;2345646;57;21038;-75
2022/05/17 13:49:14;;;;;;;16.55;8.05;;;22.00;64.00;;;;;;2346335;57;21049;-75